22. Mai 2022

Uhrzeit Code Wetter Temp. Sichtweite Wolken Wind METAR/SPECI
09:25
V
12 °C 10 km+ - 200°   200° 7 kt METAR EHHW 220725Z AUTO 20007KT 9999 NSC 12/08 Q1017
08:55
V
12 °C 10 km+ - 220°   220° 7 kt METAR EHHW 220655Z AUTO 22007KT 9999 NSC 12/09 Q1017
08:25
V
12 °C 10 km+ - 220°   220° 5 kt METAR EHHW 220625Z AUTO 22005KT 190V250 9999 NSC 12/09 Q1017
07:55
V
12 °C 10 km+ - 220°   220° 7 kt METAR EHHW 220555Z AUTO 22007KT 9999 NSC 12/09 Q1017
07:25
V
12 °C 10 km+ - 220°   220° 7 kt METAR EHHW 220525Z AUTO 22007KT 9999 NSC 12/08 Q1017
06:55
V
12 °C 10 km+ - 230°   230° 4 kt METAR EHHW 220455Z AUTO 23004KT 190V280 9999 NSC 12/09 Q1017
06:25
V
12 °C 10 km+ - 240°   240° 4 kt METAR EHHW 220425Z AUTO 24004KT 190V310 9999 NSC 12/09 Q1017
05:55
V
12 °C 10 km+ - 230°   230° 4 kt METAR EHHW 220355Z AUTO 23004KT 200V280 9999 NSC 12/09 Q1017
05:25
V
12 °C 10 km+ - 230°   230° 5 kt METAR EHHW 220325Z AUTO 23005KT 190V290 9999 NSC 12/09 Q1017
04:55
V
12 °C 10 km+ - 230°   230° 5 kt METAR EHHW 220255Z AUTO 23005KT 200V280 9999 NSC 12/09 Q1017
04:25
V
12 °C 10 km+ - 250°   250° 9 kt METAR EHHW 220225Z AUTO 25009KT 9999 NSC 12/09 Q1018
03:55
V
11 °C 10 km+ - 250°   250° 9 kt METAR EHHW 220155Z AUTO 25009KT 9999 NSC 11/09 Q1018
03:25
V
11 °C 10 km+ - 250°   250° 8 kt METAR EHHW 220125Z AUTO 25008KT 9999 NSC 11/09 Q1018
02:55
V
11 °C 10 km+ - 260°   260° 8 kt METAR EHHW 220055Z AUTO 26008KT 9999 NSC 11/09 Q1018
02:25
V
11 °C 10 km+ - 250°   250° 8 kt METAR EHHW 220025Z AUTO 25008KT 9999 NSC 11/09 Q1018
01:55
V
12 °C 10 km+ - 260°   260° 9 kt METAR EHHW 212355Z AUTO 26009KT 9999 NSC 12/09 Q1018
01:25
V
12 °C 10 km+ - 250°   250° 8 kt METAR EHHW 212325Z AUTO 25008KT 9999 NSC 12/09 Q1018
00:55
V
12 °C 10 km+ - 250°   250° 8 kt METAR EHHW 212255Z AUTO 25008KT 210V270 9999 NSC 12/09 Q1018
00:25
V
12 °C 10 km+ - 260°   260° 6 kt METAR EHHW 212225Z AUTO 26006KT 9999 NSC 12/09 Q1018

21. Mai 2022

Uhrzeit Code Wetter Temp. Sichtweite Wolken Wind METAR/SPECI
23:55
V
12 °C 10 km+ - 250°   250° 7 kt METAR EHHW 212155Z AUTO 25007KT 9999 NSC 12/09 Q1018
23:25
V
12 °C 10 km+ - 260°   260° 5 kt METAR EHHW 212125Z AUTO 26005KT 9999 NSC 12/10 Q1019
22:55
V
12 °C 10 km+ - 260°   260° 8 kt METAR EHHW 212055Z AUTO 26008KT 9999 NSC 12/10 Q1019
22:25
V
12 °C 10 km+ - 260°   260° 9 kt METAR EHHW 212025Z AUTO 26009KT 9999 NSC 12/09 Q1019
21:55
V
12 °C 10 km+ - 260°   260° 8 kt METAR EHHW 211955Z AUTO 26008KT 9999 NSC 12/09 Q1019
21:25
V
12 °C 10 km+ - 270°   270° 9 kt METAR EHHW 211925Z AUTO 27009KT 9999 FEW011/// 12/09 Q1019
20:55
V
12 °C 10 km+ - 270°   270° 9 kt METAR EHHW 211855Z AUTO 27009KT 9999 SCT010/// 12/09 Q1019
20:25
M
12 °C 10 km+ 1.200 ft 270°   270° 9 kt METAR EHHW 211825Z AUTO 27009KT 250V310 9999 SCT010/// BKN012/// 12/09 Q1019
19:55
V
12 °C 10 km+ - 270°   270° 10 kt METAR EHHW 211755Z AUTO 27010KT 9999 SCT010/// SCT013/// 12/09 Q1019
19:25
M
12 °C 10 km+ 1.700 ft 270°   270° 11 kt METAR EHHW 211725Z AUTO 27011KT 9999 SCT010/// SCT013/// BKN017/// 12/09 Q1019
18:55
M
12 °C 10 km+ 1.200 ft 270°   270° 11 kt METAR EHHW 211655Z AUTO 27011KT 9999 SCT010/// BKN012/// 12/09 Q1019
18:25
M
12 °C 10 km+ 1.300 ft 260°   260° 11 kt METAR EHHW 211625Z AUTO 26011KT 9999 SCT010/// BKN013/// 12/09 Q1019
17:55
V
12 °C 10 km+ - 270°   270° 8 kt METAR EHHW 211555Z AUTO 27008KT 9999 SCT011/// 12/09 Q1019
17:25
M
13 °C 10 km+ 1.700 ft 280°   280° 10 kt METAR EHHW 211525Z AUTO 28010KT 9999 FEW010/// SCT013/// BKN017/// 13/09 Q1019
16:55
M
12 °C 10 km+ 1.400 ft 280°   280° 12 kt METAR EHHW 211455Z AUTO 28012KT 9999 SCT010/// BKN014/// BKN018/// 12/09 Q1019
16:25
V
13 °C 10 km+ - 270°   270° 11 kt METAR EHHW 211425Z AUTO 27011KT 9999 SCT010/// 13/09 Q1019
15:55
V
13 °C 10 km+ - 270°   270° 13 kt METAR EHHW 211355Z AUTO 27013KT 9999 SCT010/// SCT012/// 13/09 Q1019
15:25
M
13 °C 10 km+ 1.300 ft 270°   270° 13 kt METAR EHHW 211325Z AUTO 27013KT 9999 SCT010/// BKN013/// 13/09 Q1019
14:55
M
13 °C 10 km+ 1.200 ft 280°   280° 12 kt METAR EHHW 211255Z AUTO 28012KT 9999 SCT010/// BKN012/// 13/09 Q1018
14:25
M
13 °C 10 km+ 1.200 ft 280°   280° 13 kt METAR EHHW 211225Z AUTO 28013KT 9999 SCT010/// BKN012/// BKN015/// 13/09 Q1018
13:55
M
13 °C 10 km+ 1.300 ft 270°   270° 15 kt METAR EHHW 211155Z AUTO 27015KT 9999 FEW010/// BKN013/// BKN016/// 13/09 Q1018
13:25
M
13 °C 10 km+ 1.300 ft 270°   270° 13 kt METAR EHHW 211125Z AUTO 27013KT 9999 FEW011/// BKN013/// OVC016/// 13/09 Q1018
12:55
M
13 °C 10 km+ 1.400 ft 270°   270° 14 kt METAR EHHW 211055Z AUTO 27014KT 9999 FEW011/// BKN014/// OVC016/// 13/09 Q1018
12:25
M
13 °C 10 km+ 1.500 ft 280°   280° 13 kt METAR EHHW 211025Z AUTO 28013KT 9999 FEW010/// SCT012/// OVC015/// 13/09 Q1017
11:55
M
13 °C 10 km+ 1.300 ft 270°   270° 13 kt METAR EHHW 210955Z AUTO 27013KT 9999 SCT010/// BKN013/// OVC016/// 13/09 Q1017
11:25
M
13 °C 10 km+ 1.000 ft 280°   280° 14 kt METAR EHHW 210925Z AUTO 28014KT 9999 FEW009/// BKN010/// BKN012/// 13/09 Q1017
10:55
M
13 °C 10 km+ 1.000 ft 270°   270° 15 kt METAR EHHW 210855Z AUTO 27015KT 9999 FEW009/// BKN010/// 13/10 Q1017
10:25
M
13 °C 10 km+ 1.000 ft 280°   280° 15 kt METAR EHHW 210825Z AUTO 28015KT 9999 FEW009/// BKN010/// 13/10 Q1016
09:55
V
13 °C 10 km+ - 270°   270° 17 kt METAR EHHW 210755Z AUTO 27017KT 9999 FEW009/// SCT010/// 13/10 Q1016
09:25
M
13 °C 10 km+ 1.000 ft 280°   280° 16 kt METAR EHHW 210725Z AUTO 28016KT 9999 FEW009/// BKN010/// 13/10 Q1015
08:55
M
13 °C 10 km+ 1.000 ft 280°   280° 16 kt METAR EHHW 210655Z AUTO 28016KT 9999 SCT009/// BKN010/// 13/10 Q1015
08:25
M
12 °C 10 km+ 1.000 ft 280°   280° 15 kt METAR EHHW 210625Z AUTO 28015KT 9999 FEW009/// OVC010/// 12/10 Q1015
07:55
M
12 °C 10 km+ 1.000 ft 280°   280° 18 kt METAR EHHW 210555Z AUTO 28018KT 9999 FEW009/// BKN010/// OVC013/// 12/10 Q1014
07:25
M
12 °C 10 km+ 1.000 ft 280°   280° 23 kt METAR EHHW 210525Z AUTO 28023KT 9999 FEW007/// SCT009/// BKN010/// 12/10 Q1014
06:55
I
12 °C 10 km+ 900 ft 280°   280° 22 kt METAR EHHW 210455Z AUTO 28022KT 9999 FEW001/// SCT007/// BKN009/// 12/10 Q1014
06:25
M
12 °C 10 km+ 1.900 ft 280°   280° 22 kt METAR EHHW 210425Z AUTO 28022KT 9999 -RA FEW007/// SCT009/// BKN019/// 12/10 Q1013
05:55
V
12 °C 10 km+ - 270°   270° 20 kt METAR EHHW 210355Z AUTO 27020KT 9999 FEW012/// SCT028/// 12/10 Q1013
05:25
V
13 °C 10 km+ - 250°   250° 23 kt METAR EHHW 210325Z AUTO 25023KT 9999 FEW010/// SCT030/// 13/10 Q1013
04:55
V
13 °C 10 km+ 3.500 ft 250°   250° 23 kt METAR EHHW 210255Z AUTO 25023KT 9999 FEW009/// SCT026/// BKN035/// 13/10 Q1013
04:25
V
12 °C 10 km+ 4.500 ft 240°   240° 17 kt METAR EHHW 210225Z AUTO 24017KT 9999 FEW009/// SCT030/// BKN045/// 12/11 Q1013
03:55
M
12 °C 10 km+ 2.700 ft 230°   230° 17 kt METAR EHHW 210155Z AUTO 23017KT 9999 FEW007/// SCT011/// BKN027/// 12/11 Q1013 REDZ
03:25
V
12 °C 10 km+ 3.600 ft 240°   240° 13 kt METAR EHHW 210125Z AUTO 24013KT 200V280 9999 FEW009/// SCT013/// BKN036/// 12/11 Q1014 REDZ
02:55
V
12 °C 10 km+ 4.900 ft 230°   230° 22 kt METAR EHHW 210055Z AUTO 23022KT 9999 -RA FEW023/// SCT037/// BKN049/// 12/10 Q1014
02:25
V
12 °C 10 km+ - 220°   220° 15 kt METAR EHHW 210025Z AUTO 22015KT 9999 FEW036/// 12/09 Q1014
01:55
V
12 °C 10 km+ - 230°   230° 12 kt METAR EHHW 202355Z AUTO 23012KT 200V260 9999 SCT034/// SCT046/// 12/09 Q1014
01:25
V
12 °C 10 km+ - 240°   240° 12 kt METAR EHHW 202325Z AUTO 24012KT 190V290 9999 SCT031/// SCT039/// 12/09 Q1014
00:55
V
11 °C 10 km+ - 250°   250° 15 kt METAR EHHW 202255Z AUTO 25015KT 200V280 9999 FEW036/// 11/09 Q1014
00:25
V
12 °C 10 km+ - 260°   260° 13 kt METAR EHHW 202225Z AUTO 26013KT 9999 FEW048/// 12/07 Q1014

20. Mai 2022

Uhrzeit Code Wetter Temp. Sichtweite Wolken Wind METAR/SPECI
23:55
V
11 °C 10 km+ - 260°   260° 15 kt METAR EHHW 202155Z AUTO 26015KT 9999 FEW009/// SCT011/// 11/08 Q1014
23:25
M
11 °C 10 km+ 1.200 ft 260°   260° 17 kt METAR EHHW 202125Z AUTO 26017KT 9999 FEW009/// SCT010/// BKN012/// 11/09 Q1014
22:55
V
11 °C 10 km+ - 260°   260° 15 kt METAR EHHW 202055Z AUTO 26015KT 9999 FEW009/// 11/09 Q1014
22:25
V
11 °C 10 km+ 4.900 ft 260°   260° 9 kt METAR EHHW 202025Z AUTO 26009KT 9999 FEW003/// SCT006/// BKN049/// 11/10 Q1014 REDZ
21:55
I
11 °C 10 km+ 600 ft 260°   260° 11 kt METAR EHHW 201955Z AUTO 26011KT 220V280 9999 DZ FEW003/// SCT004/// BKN006/// 11/10 Q1014
21:25
M
10 °C 6 km 1.400 ft 230°   230° 5 kt METAR EHHW 201925Z AUTO 23005KT 190V290 6000 -RA FEW005/// SCT009/// BKN014/// 10/09 Q1013 RERA REDZ
20:55
M
10 °C 10 km+ 2.200 ft 240°   240° 8 kt METAR EHHW 201855Z AUTO 24008KT 210V290 9999 +DZ FEW013/// SCT016/// OVC022/// 10/08 Q1013
20:25
M
10 °C 10 km+ 2.600 ft 270°   270° 4 kt METAR EHHW 201825Z AUTO 27004KT 9999 SCT022/// BKN026/// BKN032/// 10/07 Q1013
19:55
V
10 °C 10 km+ - 290°   290° 9 kt METAR EHHW 201755Z AUTO 29009KT 9999 -DZ FEW001/// SCT033/// 10/07 Q1013
19:25
V
11 °C 9 km 4.600 ft 310°   310° 4 kt METAR EHHW 201725Z AUTO 31004KT 9000 -RA FEW001/// SCT005/// BKN046/// 11/10 Q1013
18:55
I
11 °C 10 km+ 500 ft Var   Var 2 kt METAR EHHW 201655Z AUTO VRB02KT 9999 +DZRA FEW000/// BKN005/// BKN010/// 11/09 Q1013
18:25
L
11 °C 10 km+ 400 ft 060°   060° 6 kt METAR EHHW 201625Z AUTO 06006KT 040V100 9999 -SHRA FEW000/// BKN004/// OVC005/// 11/10 Q1013
17:55
I
11 °C 8 km 500 ft 320°   320° 1 kt METAR EHHW 201555Z AUTO 32001KT 8000 -RA FEW000/// BKN005/// BKN010/// 11/10 Q1014
17:25
M
12 °C 10 km+ 1.300 ft Var   Var 1 kt METAR EHHW 201525Z AUTO VRB01KT 9999 -RA FEW000/// SCT005/// BKN013/// 12/10 Q1014
16:55
V
12 °C 10 km+ - 120°   120° 4 kt METAR EHHW 201455Z AUTO 12004KT 070V190 9999 -RA NSC 12/10 Q1015 RERA REDZ
16:25
V
12 °C 10 km+ - Var   Var 6 kt METAR EHHW 201425Z AUTO VRB06KT 9999 NSC 12/09 Q1014
15:55
V
12 °C 10 km+ - 090°   090° 10 kt METAR EHHW 201355Z AUTO 09010KT 030V170 9999 NSC 12/10 Q1014
15:25
V
12 °C 10 km+ - 100°   100° 9 kt METAR EHHW 201325Z AUTO 10009KT 060V130 9999 NSC 12/10 Q1015
14:55
V
12 °C 10 km+ - 100°   100° 7 kt METAR EHHW 201255Z AUTO 10007KT 040V130 9999 NSC 12/10 Q1015
14:25
V
12 °C 10 km+ - 110°   110° 7 kt METAR EHHW 201225Z AUTO 11007KT 070V140 9999 NSC 12/10 Q1016
13:55
V
12 °C 10 km+ - 110°   110° 7 kt METAR EHHW 201155Z AUTO 11007KT 070V140 9999 NSC 12/10 Q1017
13:25
V
12 °C 10 km+ - 110°   110° 6 kt METAR EHHW 201125Z AUTO 11006KT 070V140 9999 NSC 12/09 Q1017
12:55
V
12 °C 10 km+ - 140°   140° 6 kt METAR EHHW 201055Z AUTO 14006KT 120V190 9999 NSC 12/09 Q1018
12:25
V
12 °C 10 km+ - 120°   120° 7 kt METAR EHHW 201025Z AUTO 12007KT 070V170 9999 NSC 12/10 Q1018
11:55
V
11 °C 10 km+ - 160°   160° 7 kt METAR EHHW 200955Z AUTO 16007KT 9999 NSC 11/10 Q1019
11:25
V
11 °C 10 km+ - 180°   180° 7 kt METAR EHHW 200925Z AUTO 18007KT 9999 NSC 11/10 Q1019
10:55
V
11 °C 10 km+ - 170°   170° 6 kt METAR EHHW 200855Z AUTO 17006KT 9999 NSC 11/10 Q1020
10:25
V
11 °C 10 km+ - 190°   190° 6 kt METAR EHHW 200825Z AUTO 19006KT 9999 SCT000/// 11/10 Q1020
09:55
V
11 °C 10 km+ - 200°   200° 7 kt METAR EHHW 200755Z AUTO 20007KT 9999 BKN000/// 11/10 Q1020
09:25
I
11 °C 3,3 km - 190°   190° 5 kt METAR EHHW 200725Z AUTO 19005KT 3300 BR FEW000/// 11/10 Q1020
08:55
V
12 °C 10 km+ - Var   Var 1 kt METAR EHHW 200655Z AUTO VRB01KT 9999 NSC 12/10 Q1020
Ältere Daten

Laden Sie unsere App herunter

Einfacher Zugriff auf das gesamte Flugwetter auf Ihrem Mobiltelefon und Tablet.
Mit vielen Funktionen, die auf der Website nicht verfügbar sind, wie Offline-Unterstützung und eine persönliche Flughafenliste.

Wir und Dritte verfolgen dein Internetverhalten auf unserer Website mit Cookies. Wenn du fortfährst, gehen wir davon aus, dass du mit unserer Cookie-Richtlinie einverstanden bist. Mehr erfahren